Etusivu
METAR-TAF:

METAR-TAF

Lentoasemat :

Užhorod, Ukraina

Leveyspiiri: 48-38-05N, Pituuspiiri: 022-15-53E, korkeus merenpinnasta: 117 m

Tämänhetkinen sää

Tämä raportti tehtiin 22 minuuttia sitten, kello 10.00 UTC
Tuuli 10 kn idästä/kaakosta, vaihdellen idän/koillisen ja etelän välillä
Lämpötila 4°C
Kosteus 70%
Ilmanpaine 1017 hPa
Näkyvyys 10 km tai enemmän

METAR: UKLU 291000Z 12005MPS 060V180 9999 NSC 04/M01 Q1017 R10/390045 NOSIG

Aika: 12:22 (10:22 UTC)

Sääennuste

Tämä raportti tehtiin 2 tuntia ja 16 minuuttia sitten, kello 08.06 UTC
Ennuste voimassa 29. päivästä klo 09 UTC - 29. päivään klo 18 UTC
Tuuli 6 kn idästä/kaakosta
Näkyvyys 10 km tai enemmän
Ajoittain
29. päivästä klo 09 UTC - 29. päivään klo 15 UTC
Tuuli 10 kn etelästä/kaakosta puuskistuen 19 kn:hen

TAF: UKLU 290806Z 2909/2918 12003MPS 9999 NSC TX07/2915Z TN00/2909Z TEMPO 2909/2915 16005G10MPS

Säähavainnot ja -ennusteet yli 4000 lentoasemalta (METAR- ja TAF-raportit).

Käytössä olevat sääasemat on merkitty karttaan keltaisilla ja punaisilla pisteillä.

Aseta hiiri pisteen päälle nähdäksesi sääaseman nimen.

Klikkaa sitten nähdäksesi säähavainnot ja -ennusteet.

Kartan vaihtaminen: klikkaa mustalla rastilla varustettuja vihreitä pisteitä, niin voit zoomata sisään; viivalla varustettua vihreää pistettä, niin voit zoomata ulos tai vihreitä nuolia, niin pääset viereisille kartoille.


METAR-TAF: